VOI178 KHOU-MMMY
Flight info
| Callsign | VOI178 |
|---|---|
| Flight time | 1h 4m |
| Altitude | 32000 |
| Route | PTRON9 PSX JIMIE REX CAMUI ITPIS ITPI1A |
| Aircraft | A320/M-SDE3FGHIRWY/LB1 |
Departure
| Time | 2026-04-29 17:02 |
|---|---|
| Airport | William P. Hobby Airport (KHOU) |
Arrival
| Time | 2026-04-29 18:07 |
|---|---|
| Airport | Monterrey International Airport (MMMY) |
| Time | Latitude | Longitude | Altitude | Speed | Heading |
|---|---|---|---|---|---|
| 2026-04-29 16:32 | 29.65239 | -95.27700 | 47 ft | 0 kts | 343° |
| 2026-04-29 16:52 | 29.65234 | -95.27698 | 53 ft | 2 kts | 343° |
| 2026-04-29 16:52 | 29.65217 | -95.27692 | 47 ft | 2 kts | 343° |
| 2026-04-29 16:53 | 29.65201 | -95.27687 | 50 ft | 2 kts | 343° |
| 2026-04-29 16:53 | 29.65184 | -95.27681 | 50 ft | 2 kts | 343° |
| 2026-04-29 16:53 | 29.65168 | -95.27675 | 51 ft | 2 kts | 341° |
| 2026-04-29 16:53 | 29.65152 | -95.27675 | 49 ft | 2 kts | 52° |
| 2026-04-29 16:54 | 29.65148 | -95.27681 | 49 ft | 0 kts | 75° |
| 2026-04-29 16:56 | 29.65148 | -95.27680 | 49 ft | 0 kts | 75° |
| 2026-04-29 16:57 | 29.65147 | -95.27671 | 49 ft | 2 kts | 94° |
| 2026-04-29 16:57 | 29.65145 | -95.27641 | 49 ft | 5 kts | 93° |
| 2026-04-29 16:57 | 29.65146 | -95.27592 | 53 ft | 7 kts | 88° |
| 2026-04-29 16:57 | 29.65147 | -95.27523 | 52 ft | 10 kts | 89° |
| 2026-04-29 16:58 | 29.65149 | -95.27447 | 52 ft | 7 kts | 89° |
| 2026-04-29 16:58 | 29.65171 | -95.27390 | 52 ft | 9 kts | 45° |
| 2026-04-29 16:58 | 29.65221 | -95.27333 | 51 ft | 11 kts | 45° |
| 2026-04-29 16:58 | 29.65283 | -95.27266 | 52 ft | 13 kts | 43° |
| 2026-04-29 16:59 | 29.65354 | -95.27186 | 52 ft | 15 kts | 45° |
| 2026-04-29 16:59 | 29.65435 | -95.27096 | 50 ft | 17 kts | 41° |
| 2026-04-29 16:59 | 29.65487 | -95.27011 | 51 ft | 9 kts | 81° |
| 2026-04-29 16:59 | 29.65472 | -95.26956 | 51 ft | 0 kts | 127° |
| 2026-04-29 17:00 | 29.65469 | -95.26951 | 48 ft | 2 kts | 127° |
| 2026-04-29 17:00 | 29.65454 | -95.26932 | 51 ft | 5 kts | 137° |
| 2026-04-29 17:01 | 29.65422 | -95.26901 | 51 ft | 7 kts | 140° |
| 2026-04-29 17:01 | 29.65381 | -95.26913 | 50 ft | 0 kts | 219° |
| 2026-04-29 17:01 | 29.65362 | -95.26931 | 50 ft | 25 kts | 220° |
| 2026-04-29 17:02 | 29.65048 | -95.27281 | 51 ft | 96 kts | 224° |
| 2026-04-29 17:02 | 29.64434 | -95.27957 | 49 ft | 146 kts | 224° |
| 2026-04-29 17:02 | 29.63671 | -95.28799 | 537 ft | 154 kts | 221° |
| 2026-04-29 17:02 | 29.62869 | -95.29649 | 1147 ft | 159 kts | 220° |
| 2026-04-29 17:03 | 29.62018 | -95.30500 | 1756 ft | 166 kts | 218° |
| 2026-04-29 17:03 | 29.61101 | -95.31367 | 2320 ft | 174 kts | 218° |
| 2026-04-29 17:03 | 29.60133 | -95.32237 | 2839 ft | 180 kts | 216° |
| 2026-04-29 17:03 | 29.59107 | -95.33116 | 3259 ft | 189 kts | 216° |
| 2026-04-29 17:04 | 29.57977 | -95.34039 | 3542 ft | 210 kts | 214° |
| 2026-04-29 17:04 | 29.56673 | -95.35056 | 3665 ft | 245 kts | 213° |
| 2026-04-29 17:04 | 29.55123 | -95.36216 | 3659 ft | 286 kts | 213° |
| 2026-04-29 17:04 | 29.53575 | -95.37754 | 4213 ft | 297 kts | 229° |
| 2026-04-29 17:05 | 29.52372 | -95.39590 | 5586 ft | 278 kts | 234° |
| 2026-04-29 17:05 | 29.51295 | -95.41357 | 6833 ft | 266 kts | 234° |
| 2026-04-29 17:05 | 29.50183 | -95.43060 | 7651 ft | 268 kts | 231° |
| 2026-04-29 17:05 | 29.48983 | -95.44731 | 8344 ft | 274 kts | 229° |
| 2026-04-29 17:06 | 29.47705 | -95.46378 | 9045 ft | 279 kts | 227° |
| 2026-04-29 17:06 | 29.46365 | -95.48016 | 9700 ft | 285 kts | 226° |
| 2026-04-29 17:06 | 29.44971 | -95.49664 | 10293 ft | 292 kts | 227° |
| 2026-04-29 17:06 | 29.43492 | -95.51394 | 10457 ft | 315 kts | 226° |
| 2026-04-29 17:07 | 29.41901 | -95.53241 | 10603 ft | 335 kts | 225° |
| 2026-04-29 17:07 | 29.40243 | -95.55158 | 11107 ft | 340 kts | 226° |
| 2026-04-29 17:07 | 29.38572 | -95.57088 | 11724 ft | 343 kts | 226° |
| 2026-04-29 17:07 | 29.36886 | -95.59039 | 12290 ft | 346 kts | 226° |
| 2026-04-29 17:08 | 29.35179 | -95.61014 | 12913 ft | 348 kts | 226° |
| 2026-04-29 17:08 | 29.33468 | -95.62995 | 13496 ft | 351 kts | 227° |
| 2026-04-29 17:08 | 29.31743 | -95.64994 | 14084 ft | 353 kts | 227° |
| 2026-04-29 17:08 | 29.30013 | -95.67000 | 14665 ft | 355 kts | 227° |
| 2026-04-29 17:09 | 29.28273 | -95.69017 | 15252 ft | 356 kts | 227° |
| 2026-04-29 17:09 | 29.26523 | -95.71040 | 15862 ft | 358 kts | 228° |
| 2026-04-29 17:09 | 29.24769 | -95.73067 | 16477 ft | 358 kts | 228° |
| 2026-04-29 17:09 | 29.23015 | -95.75094 | 17079 ft | 359 kts | 228° |
| 2026-04-29 17:10 | 29.21253 | -95.77127 | 17686 ft | 361 kts | 228° |
| 2026-04-29 17:10 | 29.19480 | -95.79171 | 18282 ft | 362 kts | 229° |
| 2026-04-29 17:10 | 29.17713 | -95.81242 | 18793 ft | 364 kts | 229° |
| 2026-04-29 17:10 | 29.15980 | -95.83319 | 19281 ft | 367 kts | 230° |
| 2026-04-29 17:11 | 29.14198 | -95.85478 | 19774 ft | 370 kts | 230° |
| 2026-04-29 17:11 | 29.12452 | -95.87594 | 20248 ft | 372 kts | 230° |
| 2026-04-29 17:11 | 29.10664 | -95.89756 | 20667 ft | 376 kts | 230° |
| 2026-04-29 17:11 | 29.08853 | -95.91940 | 21096 ft | 380 kts | 230° |
| 2026-04-29 17:12 | 29.07027 | -95.94136 | 21550 ft | 383 kts | 230° |
| 2026-04-29 17:12 | 29.05179 | -95.96352 | 21984 ft | 386 kts | 230° |
| 2026-04-29 17:12 | 29.03321 | -95.98579 | 22403 ft | 388 kts | 230° |
| 2026-04-29 17:12 | 29.02084 | -96.00060 | 22695 ft | 390 kts | 230° |
| 2026-04-29 17:13 | 28.99564 | -96.03074 | 23262 ft | 394 kts | 230° |
| 2026-04-29 17:13 | 28.97661 | -96.05349 | 23661 ft | 397 kts | 230° |
| 2026-04-29 17:13 | 28.95753 | -96.07629 | 24015 ft | 399 kts | 230° |
| 2026-04-29 17:13 | 28.93830 | -96.09923 | 24377 ft | 400 kts | 231° |
| 2026-04-29 17:14 | 28.91900 | -96.12220 | 24766 ft | 401 kts | 231° |
| 2026-04-29 17:14 | 28.89969 | -96.14523 | 25135 ft | 403 kts | 231° |
| 2026-04-29 17:14 | 28.88030 | -96.16835 | 25506 ft | 404 kts | 231° |
| 2026-04-29 17:14 | 28.86079 | -96.19158 | 25884 ft | 406 kts | 231° |
| 2026-04-29 17:15 | 28.84116 | -96.21489 | 26233 ft | 407 kts | 232° |
| 2026-04-29 17:15 | 28.82151 | -96.23818 | 26640 ft | 409 kts | 232° |
| 2026-04-29 17:15 | 28.80176 | -96.26161 | 26976 ft | 411 kts | 232° |
| 2026-04-29 17:15 | 28.78195 | -96.28518 | 27290 ft | 414 kts | 232° |
| 2026-04-29 17:16 | 28.76084 | -96.30778 | 27634 ft | 422 kts | 225° |
| 2026-04-29 17:16 | 28.73628 | -96.32685 | 27993 ft | 429 kts | 220° |
| 2026-04-29 17:16 | 28.71105 | -96.34520 | 28355 ft | 431 kts | 220° |
| 2026-04-29 17:16 | 28.68607 | -96.36415 | 28704 ft | 429 kts | 225° |
| 2026-04-29 17:17 | 28.66279 | -96.38517 | 29144 ft | 427 kts | 226° |
| 2026-04-29 17:17 | 28.63979 | -96.40638 | 29681 ft | 424 kts | 227° |
| 2026-04-29 17:17 | 28.61703 | -96.42762 | 30189 ft | 422 kts | 227° |
| 2026-04-29 17:17 | 28.59445 | -96.44885 | 30620 ft | 420 kts | 228° |
| 2026-04-29 17:18 | 28.57204 | -96.46992 | 31030 ft | 420 kts | 228° |
| 2026-04-29 17:18 | 28.54943 | -96.49107 | 31435 ft | 419 kts | 228° |
| 2026-04-29 17:18 | 28.52689 | -96.51202 | 31824 ft | 419 kts | 228° |
| 2026-04-29 17:18 | 28.50423 | -96.53301 | 32199 ft | 419 kts | 227° |
| 2026-04-29 17:19 | 28.48187 | -96.55369 | 32546 ft | 420 kts | 227° |
| 2026-04-29 17:19 | 28.45922 | -96.57467 | 32951 ft | 420 kts | 227° |
| 2026-04-29 17:19 | 28.43661 | -96.59564 | 33364 ft | 420 kts | 227° |
| 2026-04-29 17:19 | 28.41399 | -96.61658 | 33787 ft | 419 kts | 227° |
| 2026-04-29 17:20 | 28.39132 | -96.63755 | 33928 ft | 420 kts | 227° |
| 2026-04-29 17:20 | 28.36852 | -96.65868 | 33962 ft | 427 kts | 228° |
| 2026-04-29 17:20 | 28.32222 | -96.70166 | 33954 ft | 431 kts | 227° |
| 2026-04-29 17:21 | 28.27562 | -96.74460 | 33951 ft | 432 kts | 227° |
| 2026-04-29 17:21 | 28.22894 | -96.78750 | 33948 ft | 432 kts | 227° |
| 2026-04-29 17:22 | 28.18228 | -96.83041 | 33922 ft | 432 kts | 227° |
| 2026-04-29 17:22 | 28.13559 | -96.87350 | 33914 ft | 433 kts | 226° |
| 2026-04-29 17:23 | 28.08874 | -96.91659 | 33949 ft | 434 kts | 226° |
| 2026-04-29 17:23 | 28.04184 | -96.95962 | 33966 ft | 434 kts | 226° |
| 2026-04-29 17:24 | 28.00259 | -96.99559 | 33973 ft | 434 kts | 226° |
| 2026-04-29 17:24 | 27.95568 | -97.03859 | 33972 ft | 434 kts | 226° |
| 2026-04-29 17:25 | 27.90908 | -97.08128 | 33995 ft | 434 kts | 226° |
| 2026-04-29 17:25 | 27.86210 | -97.12423 | 33980 ft | 434 kts | 226° |
| 2026-04-29 17:26 | 27.81511 | -97.16706 | 33984 ft | 434 kts | 226° |
| 2026-04-29 17:26 | 27.76815 | -97.20989 | 33958 ft | 434 kts | 226° |
| 2026-04-29 17:27 | 27.72119 | -97.25270 | 33962 ft | 434 kts | 226° |
| 2026-04-29 17:27 | 27.67420 | -97.29546 | 33964 ft | 434 kts | 226° |
| 2026-04-29 17:28 | 27.62716 | -97.33817 | 33968 ft | 434 kts | 226° |
| 2026-04-29 17:28 | 27.58009 | -97.38085 | 33954 ft | 434 kts | 226° |
| 2026-04-29 17:29 | 27.53307 | -97.42352 | 33949 ft | 434 kts | 226° |
| 2026-04-29 17:29 | 27.48599 | -97.46618 | 33945 ft | 434 kts | 226° |
| 2026-04-29 17:30 | 27.43893 | -97.50874 | 33939 ft | 434 kts | 226° |
| 2026-04-29 17:30 | 27.39183 | -97.55122 | 33931 ft | 434 kts | 226° |
| 2026-04-29 17:31 | 27.34475 | -97.59369 | 33924 ft | 434 kts | 225° |
| 2026-04-29 17:31 | 27.29809 | -97.63583 | 33928 ft | 433 kts | 225° |
| 2026-04-29 17:32 | 27.25109 | -97.67814 | 33912 ft | 432 kts | 225° |
| 2026-04-29 17:32 | 27.20406 | -97.72041 | 33914 ft | 432 kts | 225° |
| 2026-04-29 17:33 | 27.15709 | -97.76257 | 33910 ft | 432 kts | 225° |
| 2026-04-29 17:33 | 27.11010 | -97.80479 | 33910 ft | 432 kts | 225° |
| 2026-04-29 17:34 | 27.06314 | -97.84695 | 33914 ft | 432 kts | 225° |
| 2026-04-29 17:34 | 27.01619 | -97.88904 | 33913 ft | 432 kts | 225° |
| 2026-04-29 17:35 | 26.94561 | -97.95212 | 33886 ft | 432 kts | 225° |
| 2026-04-29 17:36 | 26.89860 | -97.99414 | 33891 ft | 433 kts | 225° |
| 2026-04-29 17:36 | 26.85139 | -98.03610 | 33894 ft | 433 kts | 225° |
| 2026-04-29 17:37 | 26.80429 | -98.07792 | 33893 ft | 433 kts | 225° |
| 2026-04-29 17:37 | 26.75706 | -98.11980 | 33897 ft | 433 kts | 225° |
| 2026-04-29 17:38 | 26.70993 | -98.16161 | 33904 ft | 433 kts | 225° |
| 2026-04-29 17:38 | 26.66276 | -98.20349 | 33908 ft | 433 kts | 225° |
| 2026-04-29 17:39 | 26.61562 | -98.24534 | 33900 ft | 432 kts | 224° |
| 2026-04-29 17:39 | 26.56844 | -98.28710 | 33904 ft | 433 kts | 224° |
| 2026-04-29 17:40 | 26.52125 | -98.32883 | 33907 ft | 433 kts | 224° |
| 2026-04-29 17:40 | 26.47430 | -98.37027 | 33905 ft | 432 kts | 224° |
| 2026-04-29 17:41 | 26.42715 | -98.41188 | 33924 ft | 432 kts | 224° |
| 2026-04-29 17:41 | 26.38004 | -98.45345 | 33916 ft | 431 kts | 224° |
| 2026-04-29 17:42 | 26.33296 | -98.49487 | 33909 ft | 431 kts | 224° |
| 2026-04-29 17:42 | 26.28608 | -98.53598 | 33909 ft | 427 kts | 224° |
| 2026-04-29 17:43 | 26.23963 | -98.57679 | 33921 ft | 424 kts | 224° |
| 2026-04-29 17:43 | 26.19385 | -98.61803 | 33910 ft | 422 kts | 225° |
| 2026-04-29 17:43 | 26.17110 | -98.63880 | 33031 ft | 423 kts | 225° |
| 2026-04-29 17:44 | 26.15006 | -98.66165 | 31576 ft | 425 kts | 236° |
| 2026-04-29 17:44 | 26.13338 | -98.68881 | 30469 ft | 425 kts | 246° |
| 2026-04-29 17:44 | 26.12163 | -98.71874 | 29514 ft | 420 kts | 255° |
| 2026-04-29 17:44 | 26.11375 | -98.74977 | 28511 ft | 413 kts | 257° |
| 2026-04-29 17:45 | 26.10615 | -98.78041 | 27424 ft | 409 kts | 257° |
| 2026-04-29 17:45 | 26.09856 | -98.81080 | 26443 ft | 407 kts | 257° |
| 2026-04-29 17:45 | 26.09099 | -98.84110 | 25833 ft | 405 kts | 257° |
| 2026-04-29 17:45 | 26.08352 | -98.87104 | 25373 ft | 399 kts | 257° |
| 2026-04-29 17:46 | 26.07616 | -98.90061 | 24931 ft | 394 kts | 257° |
| 2026-04-29 17:46 | 26.06891 | -98.92982 | 24482 ft | 390 kts | 257° |
| 2026-04-29 17:46 | 26.06174 | -98.95875 | 24042 ft | 386 kts | 257° |
| 2026-04-29 17:46 | 26.05475 | -98.98703 | 23608 ft | 383 kts | 257° |
| 2026-04-29 17:47 | 26.04770 | -99.01549 | 23129 ft | 381 kts | 256° |
| 2026-04-29 17:47 | 26.04071 | -99.04373 | 22687 ft | 376 kts | 256° |
| 2026-04-29 17:47 | 26.03376 | -99.07167 | 22244 ft | 372 kts | 256° |
| 2026-04-29 17:47 | 26.02689 | -99.09926 | 21789 ft | 368 kts | 256° |
| 2026-04-29 17:48 | 26.02009 | -99.12656 | 21357 ft | 364 kts | 256° |
| 2026-04-29 17:48 | 26.01336 | -99.15354 | 20912 ft | 361 kts | 256° |
| 2026-04-29 17:48 | 26.00666 | -99.18037 | 20460 ft | 358 kts | 256° |
| 2026-04-29 17:48 | 26.00005 | -99.20688 | 20010 ft | 355 kts | 256° |
| 2026-04-29 17:49 | 25.99314 | -99.23312 | 19521 ft | 353 kts | 255° |
| 2026-04-29 17:49 | 25.98549 | -99.25908 | 19027 ft | 353 kts | 253° |
| 2026-04-29 17:49 | 25.97747 | -99.28474 | 18540 ft | 352 kts | 252° |
| 2026-04-29 17:49 | 25.96936 | -99.31017 | 18174 ft | 347 kts | 252° |
| 2026-04-29 17:50 | 25.96136 | -99.33534 | 17662 ft | 345 kts | 252° |
| 2026-04-29 17:50 | 25.95348 | -99.36044 | 17132 ft | 344 kts | 252° |
| 2026-04-29 17:50 | 25.94574 | -99.38537 | 16901 ft | 339 kts | 253° |
| 2026-04-29 17:50 | 25.93809 | -99.41024 | 16909 ft | 341 kts | 252° |
| 2026-04-29 17:51 | 25.93041 | -99.43519 | 16907 ft | 342 kts | 253° |
| 2026-04-29 17:51 | 25.92284 | -99.46024 | 16856 ft | 342 kts | 256° |
| 2026-04-29 17:51 | 25.92000 | -99.48618 | 16594 ft | 339 kts | 274° |
| 2026-04-29 17:51 | 25.92435 | -99.51184 | 16351 ft | 339 kts | 283° |
| 2026-04-29 17:52 | 25.93013 | -99.53728 | 16115 ft | 339 kts | 284° |
| 2026-04-29 17:52 | 25.93397 | -99.55409 | 15958 ft | 339 kts | 284° |
| 2026-04-29 17:52 | 25.94173 | -99.58804 | 15644 ft | 338 kts | 283° |
| 2026-04-29 17:52 | 25.94748 | -99.61322 | 15406 ft | 335 kts | 283° |
| 2026-04-29 17:53 | 25.95320 | -99.63832 | 15170 ft | 334 kts | 283° |
| 2026-04-29 17:53 | 25.95845 | -99.66312 | 14937 ft | 334 kts | 282° |
| 2026-04-29 17:53 | 25.96322 | -99.68835 | 14708 ft | 333 kts | 281° |
| 2026-04-29 17:53 | 25.96777 | -99.71393 | 14474 ft | 333 kts | 280° |
| 2026-04-29 17:54 | 25.97219 | -99.73917 | 14243 ft | 333 kts | 280° |
| 2026-04-29 17:54 | 25.97655 | -99.76404 | 14017 ft | 332 kts | 280° |
| 2026-04-29 17:54 | 25.98103 | -99.78926 | 13791 ft | 332 kts | 280° |
| 2026-04-29 17:54 | 25.98559 | -99.81445 | 13560 ft | 332 kts | 281° |
| 2026-04-29 17:55 | 25.99020 | -99.83960 | 13309 ft | 332 kts | 281° |
| 2026-04-29 17:55 | 25.99480 | -99.86472 | 13061 ft | 332 kts | 281° |
| 2026-04-29 17:55 | 25.99938 | -99.88985 | 12819 ft | 331 kts | 281° |
| 2026-04-29 17:55 | 26.00394 | -99.91483 | 12585 ft | 327 kts | 281° |
| 2026-04-29 17:56 | 26.00844 | -99.93937 | 12336 ft | 320 kts | 281° |
| 2026-04-29 17:56 | 26.01282 | -99.96344 | 12092 ft | 314 kts | 281° |
| 2026-04-29 17:56 | 26.01711 | -99.98703 | 11823 ft | 309 kts | 281° |
| 2026-04-29 17:56 | 26.02131 | -100.01013 | 11585 ft | 303 kts | 281° |
| 2026-04-29 17:57 | 26.02546 | -100.03289 | 11343 ft | 298 kts | 281° |
| 2026-04-29 17:57 | 26.02949 | -100.05501 | 11104 ft | 284 kts | 281° |
| 2026-04-29 17:57 | 26.03328 | -100.07603 | 10874 ft | 271 kts | 281° |
| 2026-04-29 17:57 | 26.03571 | -100.08950 | 10674 ft | 265 kts | 281° |
| 2026-04-29 17:58 | 26.04048 | -100.11594 | 10230 ft | 256 kts | 281° |
| 2026-04-29 17:58 | 26.04390 | -100.13501 | 10158 ft | 251 kts | 281° |
| 2026-04-29 17:58 | 26.04731 | -100.15400 | 10051 ft | 250 kts | 281° |
| 2026-04-29 17:58 | 26.05069 | -100.17294 | 9945 ft | 250 kts | 281° |
| 2026-04-29 17:59 | 26.05259 | -100.19220 | 9615 ft | 255 kts | 265° |
| 2026-04-29 17:59 | 26.04799 | -100.21136 | 9177 ft | 261 kts | 243° |
| 2026-04-29 17:59 | 26.03694 | -100.22751 | 8753 ft | 267 kts | 221° |
| 2026-04-29 17:59 | 26.02143 | -100.23898 | 8383 ft | 269 kts | 212° |
| 2026-04-29 18:00 | 26.00555 | -100.24958 | 8036 ft | 265 kts | 212° |
| 2026-04-29 18:00 | 25.98985 | -100.26008 | 7565 ft | 262 kts | 212° |
| 2026-04-29 18:00 | 25.97436 | -100.27045 | 7147 ft | 258 kts | 212° |
| 2026-04-29 18:00 | 25.95915 | -100.28066 | 6739 ft | 253 kts | 212° |
| 2026-04-29 18:01 | 25.94422 | -100.29070 | 6344 ft | 249 kts | 212° |
| 2026-04-29 18:01 | 25.92964 | -100.30048 | 5922 ft | 238 kts | 212° |
| 2026-04-29 18:01 | 25.91589 | -100.30957 | 5670 ft | 222 kts | 208° |
| 2026-04-29 18:01 | 25.90133 | -100.31282 | 5632 ft | 207 kts | 172° |
| 2026-04-29 18:02 | 25.88899 | -100.30654 | 5422 ft | 191 kts | 136° |
| 2026-04-29 18:02 | 25.88157 | -100.29493 | 5145 ft | 178 kts | 120° |
| 2026-04-29 18:02 | 25.87546 | -100.28374 | 4884 ft | 163 kts | 120° |
| 2026-04-29 18:02 | 25.86964 | -100.27312 | 4632 ft | 160 kts | 119° |
| 2026-04-29 18:03 | 25.86387 | -100.26263 | 4428 ft | 159 kts | 120° |
| 2026-04-29 18:03 | 25.85815 | -100.25224 | 4219 ft | 157 kts | 120° |
| 2026-04-29 18:03 | 25.85246 | -100.24190 | 3991 ft | 156 kts | 120° |
| 2026-04-29 18:03 | 25.84681 | -100.23160 | 3741 ft | 156 kts | 121° |
| 2026-04-29 18:04 | 25.84119 | -100.22131 | 3493 ft | 155 kts | 120° |
| 2026-04-29 18:04 | 25.83568 | -100.21123 | 3278 ft | 154 kts | 120° |
| 2026-04-29 18:04 | 25.83013 | -100.20105 | 3025 ft | 153 kts | 120° |
| 2026-04-29 18:04 | 25.82463 | -100.19102 | 2824 ft | 152 kts | 121° |
| 2026-04-29 18:05 | 25.81914 | -100.18108 | 2630 ft | 150 kts | 121° |
| 2026-04-29 18:05 | 25.81372 | -100.17122 | 2434 ft | 149 kts | 121° |
| 2026-04-29 18:05 | 25.80837 | -100.16147 | 2243 ft | 147 kts | 120° |
| 2026-04-29 18:05 | 25.80298 | -100.15164 | 2052 ft | 148 kts | 121° |
| 2026-04-29 18:06 | 25.79770 | -100.14201 | 1848 ft | 148 kts | 121° |
| 2026-04-29 18:06 | 25.79257 | -100.13224 | 1629 ft | 145 kts | 120° |
| 2026-04-29 18:06 | 25.78738 | -100.12272 | 1455 ft | 144 kts | 124° |
| 2026-04-29 18:06 | 25.78212 | -100.11341 | 1285 ft | 134 kts | 123° |
| 2026-04-29 18:07 | 25.77773 | -100.10632 | 1271 ft | 87 kts | 122° |
| 2026-04-29 18:07 | 25.77571 | -100.10203 | 1261 ft | 38 kts | 115° |
| 2026-04-29 18:07 | 25.77523 | -100.10102 | 1260 ft | 2 kts | 120° |
| 2026-04-29 18:07 | 25.77521 | -100.10097 | 1260 ft | 3 kts | 120° |